Time;durP1;ratioP1;P1;durP2;ratioP2;P2;SDS_P1;SDS_P2;PMS_P1;PMS_P2;Temp;Humidity;BMP_temperature;BMP_pressure;BME280_temperature;BME280_humidity;BME280_pressure;Samples;Min_cycle;Max_cycle;Signal;HPM_P1;HPM_P2
2020/12/31 05:02:22;;;;;;;30.73;18.67;;;3.10;99.90;;;;;;5090997;23;20252;-68
2020/12/31 05:04:48;;;;;;;29.30;17.80;;;3.10;99.90;;;;;;4955208;28;20209;-68
2020/12/31 05:07:17;;;;;;;31.13;18.08;;;3.10;99.90;;;;;;4955980;28;20549;-69
2020/12/31 05:09:43;;;;;;;33.15;19.15;;;3.10;99.90;;;;;;4956515;28;20229;-69
2020/12/31 05:12:09;;;;;;;33.83;19.17;;;3.10;99.90;;;;;;4955384;28;20642;-69
2020/12/31 05:14:36;;;;;;;34.75;19.58;;;3.10;99.90;;;;;;4957045;28;20611;-69
2020/12/31 05:17:13;;;;;;;32.45;20.70;;;3.00;99.90;;;;;;4957558;28;20572;-69
2020/12/31 05:19:41;;;;;;;31.10;17.58;;;3.00;99.90;;;;;;4956878;28;20719;-69
2020/12/31 05:22:13;;;;;;;33.25;18.60;;;3.00;99.90;;;;;;4955629;28;20284;-69
2020/12/31 05:24:42;;;;;;;31.83;18.25;;;3.00;99.90;;;;;;4956602;28;20201;-69
2020/12/31 05:27:23;;;;;;;31.20;17.88;;;2.90;99.90;;;;;;4956184;28;20301;-69
2020/12/31 05:30:00;;;;;;;37.20;19.75;;;2.90;99.90;;;;;;4956478;28;20202;-69
2020/12/31 05:32:27;;;;;;;38.30;19.60;;;2.90;99.90;;;;;;4954993;28;20697;-67
2020/12/31 05:34:55;;;;;;;34.85;18.17;;;2.90;99.90;;;;;;4955325;28;20209;-66
2020/12/31 05:37:23;;;;;;;35.20;19.88;;;2.90;99.90;;;;;;4955214;28;20344;-67
2020/12/31 05:40:01;;;;;;;33.83;18.02;;;2.90;99.90;;;;;;4955339;28;20229;-65
2020/12/31 05:42:28;;;;;;;36.72;20.40;;;2.80;99.90;;;;;;4954546;28;20258;-66
2020/12/31 05:45:13;;;;;;;31.73;19.20;;;2.80;99.90;;;;;;4954817;28;20217;-69
2020/12/31 05:47:47;;;;;;;29.90;16.42;;;2.90;99.90;;;;;;4954295;28;20623;-68
2020/12/31 05:50:21;;;;;;;35.35;18.52;;;2.90;99.90;;;;;;4954807;28;20203;-68
2020/12/31 05:52:47;;;;;;;30.45;18.75;;;2.90;99.90;;;;;;4954543;28;20205;-67
2020/12/31 05:55:16;;;;;;;34.08;18.05;;;2.90;99.90;;;;;;4954435;28;20228;-67
2020/12/31 05:57:47;;;;;;;31.23;19.88;;;2.90;99.90;;;;;;4954544;28;20201;-67
2020/12/31 06:00:19;;;;;;;26.50;16.23;;;2.90;99.90;;;;;;4954878;28;20224;-69
2020/12/31 06:02:48;;;;;;;28.20;17.90;;;3.00;99.90;;;;;;4953926;28;20213;-68
2020/12/31 06:05:15;;;;;;;24.52;15.10;;;3.00;99.90;;;;;;4955079;28;20216;-68
2020/12/31 06:07:44;;;;;;;27.23;18.00;;;3.00;99.90;;;;;;4954628;28;20638;-67
2020/12/31 06:10:14;;;;;;;31.13;18.33;;;3.10;99.90;;;;;;4954571;28;20216;-68
2020/12/31 06:12:47;;;;;;;27.77;16.80;;;3.10;99.90;;;;;;4954189;28;20236;-68
2020/12/31 06:15:17;;;;;;;29.30;17.25;;;3.20;99.90;;;;;;4936579;29;20210;-68
2020/12/31 06:17:45;;;;;;;30.95;17.90;;;3.20;99.90;;;;;;4954165;28;20209;-67
2020/12/31 06:20:12;;;;;;;32.40;17.25;;;3.20;99.90;;;;;;4954286;28;20308;-66
2020/12/31 06:23:10;;;;;;;24.25;14.63;;;3.20;99.90;;;;;;4954376;28;20212;-67
2020/12/31 06:25:42;;;;;;;25.80;16.27;;;3.20;99.90;;;;;;4938601;29;20197;-68
2020/12/31 06:28:14;;;;;;;30.27;15.18;;;3.30;99.90;;;;;;4952339;28;21995;-68
2020/12/31 06:30:43;;;;;;;24.08;15.50;;;3.30;99.90;;;;;;4954258;28;20228;-69
2020/12/31 06:33:20;;;;;;;22.08;14.40;;;3.30;99.90;;;;;;4952975;28;20212;-68
2020/12/31 06:35:49;;;;;;;22.60;15.38;;;3.30;99.90;;;;;;4954832;28;20660;-69
2020/12/31 06:38:16;;;;;;;25.08;15.25;;;3.30;99.90;;;;;;4953491;28;20209;-68
2020/12/31 06:40:43;;;;;;;26.85;15.30;;;3.30;99.90;;;;;;4954241;28;20233;-67
2020/12/31 06:43:11;;;;;;;22.48;13.98;;;3.30;99.90;;;;;;4953337;28;20221;-67
2020/12/31 06:45:43;;;;;;;23.50;14.30;;;3.30;99.90;;;;;;4953774;28;20209;-68
2020/12/31 06:48:34;;;;;;;24.13;14.38;;;3.40;99.90;;;;;;4953349;28;20214;-68
2020/12/31 06:51:02;;;;;;;25.50;15.82;;;3.30;99.90;;;;;;4953889;28;20316;-67
2020/12/31 06:53:30;;;;;;;21.27;12.57;;;3.40;99.90;;;;;;4953994;28;20268;-66
2020/12/31 06:55:58;;;;;;;18.58;13.70;;;3.40;99.90;;;;;;4953506;28;20205;-66
2020/12/31 06:58:25;;;;;;;22.17;13.73;;;3.40;99.90;;;;;;4954051;28;20220;-67
2020/12/31 07:00:52;;;;;;;19.85;13.27;;;3.40;99.90;;;;;;4953853;28;20712;-68
2020/12/31 07:03:48;;;;;;;18.73;12.52;;;3.40;99.90;;;;;;4953155;28;20235;-67
2020/12/31 07:06:33;;;;;;;22.25;13.65;;;3.40;99.90;;;;;;4947514;28;20256;-68
2020/12/31 07:09:01;;;;;;;19.15;12.65;;;3.40;99.90;;;;;;4953857;28;20208;-68
2020/12/31 07:11:36;;;;;;;23.75;13.00;;;3.40;99.90;;;;;;4953238;28;20229;-67
2020/12/31 07:14:21;;;;;;;18.08;11.98;;;3.40;99.90;;;;;;4953908;28;20201;-69
2020/12/31 07:16:55;;;;;;;17.35;12.27;;;3.40;99.90;;;;;;4952769;28;20205;-68
2020/12/31 07:19:22;;;;;;;19.52;11.80;;;3.40;99.90;;;;;;4953163;28;20256;-69
2020/12/31 07:21:50;;;;;;;21.27;12.27;;;3.40;99.90;;;;;;4953285;28;20232;-69
2020/12/31 07:24:24;;;;;;;19.52;12.90;;;3.40;99.90;;;;;;4953675;28;20236;-69
2020/12/31 07:26:54;;;;;;;17.45;11.80;;;3.40;99.90;;;;;;4953294;28;20202;-69
2020/12/31 07:29:29;;;;;;;15.13;10.80;;;3.40;99.90;;;;;;4954031;28;20296;-69
2020/12/31 07:31:55;;;;;;;18.77;11.13;;;3.40;99.90;;;;;;4953352;28;20315;-69
2020/12/31 07:34:24;;;;;;;16.30;10.85;;;3.40;99.90;;;;;;4952474;28;20673;-68
2020/12/31 07:36:58;;;;;;;13.45;9.52;;;3.40;99.90;;;;;;4953621;28;20350;-67
2020/12/31 07:39:25;;;;;;;15.30;9.75;;;3.40;99.90;;;;;;4952989;29;20248;-67
2020/12/31 07:42:08;;;;;;;16.55;11.32;;;3.40;99.90;;;;;;4954101;28;20234;-67
2020/12/31 07:44:34;;;;;;;12.80;9.68;;;3.40;99.90;;;;;;4956328;28;20241;-67
2020/12/31 07:47:01;;;;;;;14.35;10.27;;;3.40;99.90;;;;;;4956630;29;20209;-68
2020/12/31 07:49:27;;;;;;;11.00;8.88;;;3.40;99.90;;;;;;4956088;28;20208;-68
2020/12/31 07:52:01;;;;;;;14.10;10.65;;;3.40;99.90;;;;;;4957120;28;20229;-68
2020/12/31 07:54:27;;;;;;;13.23;9.88;;;3.50;99.90;;;;;;4956988;28;20687;-67
2020/12/31 07:56:54;;;;;;;15.90;10.40;;;3.40;99.90;;;;;;4956087;28;20273;-68
2020/12/31 07:59:22;;;;;;;12.43;9.02;;;3.40;99.90;;;;;;4957078;28;20229;-68
2020/12/31 08:01:48;;;;;;;13.25;9.05;;;3.40;99.90;;;;;;4957086;28;20237;-68
2020/12/31 08:04:14;;;;;;;13.07;8.88;;;3.40;99.90;;;;;;4956584;28;20395;-68
2020/12/31 08:06:40;;;;;;;16.95;10.13;;;3.40;99.90;;;;;;4957092;28;20218;-68
2020/12/31 08:09:07;;;;;;;12.30;8.45;;;3.40;99.90;;;;;;4956634;28;20736;-68
2020/12/31 08:11:33;;;;;;;13.88;8.90;;;3.40;99.90;;;;;;4956254;28;20709;-68
2020/12/31 08:14:03;;;;;;;10.85;8.18;;;3.40;99.90;;;;;;4956325;29;20283;-68
2020/12/31 08:16:29;;;;;;;12.02;9.27;;;3.40;99.90;;;;;;4956711;28;20228;-68
2020/12/31 08:18:56;;;;;;;78.88;43.17;;;3.40;99.90;;;;;;4956264;28;20283;-68
2020/12/31 08:21:23;;;;;;;81.95;49.45;;;3.40;99.90;;;;;;4956168;28;20237;-67
2020/12/31 08:23:57;;;;;;;27.80;20.25;;;3.50;99.90;;;;;;4956152;28;20197;-68
2020/12/31 08:26:23;;;;;;;24.00;16.20;;;3.50;99.90;;;;;;4955920;28;20540;-68
2020/12/31 08:28:50;;;;;;;28.90;18.77;;;3.50;99.90;;;;;;4956584;28;20216;-68
2020/12/31 08:31:17;;;;;;;22.23;13.20;;;3.50;99.90;;;;;;4956787;28;20289;-67
2020/12/31 08:33:44;;;;;;;70.20;32.60;;;3.50;99.90;;;;;;4955639;28;20217;-68
2020/12/31 08:36:11;;;;;;;18.75;14.55;;;3.50;99.90;;;;;;4956063;28;20204;-68
2020/12/31 08:38:38;;;;;;;20.73;13.95;;;3.50;99.90;;;;;;4956066;28;20205;-68
2020/12/31 08:41:07;;;;;;;19.08;13.30;;;3.60;99.90;;;;;;4956188;28;20319;-67
2020/12/31 08:43:35;;;;;;;15.63;11.07;;;3.60;99.90;;;;;;4955616;28;20581;-68
2020/12/31 08:46:03;;;;;;;8.00;6.88;;;3.60;99.90;;;;;;4955789;29;20198;-68
2020/12/31 08:48:31;;;;;;;15.52;10.52;;;3.60;99.90;;;;;;4955726;28;20201;-68
2020/12/31 08:51:02;;;;;;;20.52;13.38;;;3.70;99.90;;;;;;4956227;28;20235;-69
2020/12/31 08:53:29;;;;;;;17.10;11.02;;;3.70;99.90;;;;;;4955357;28;20205;-68
2020/12/31 08:55:55;;;;;;;22.83;12.93;;;3.70;99.90;;;;;;4955961;28;20658;-68
2020/12/31 08:58:27;;;;;;;30.58;17.60;;;3.80;99.90;;;;;;4956928;29;20209;-68
2020/12/31 09:00:54;;;;;;;11.65;7.70;;;3.80;99.90;;;;;;4956281;28;20272;-68
2020/12/31 09:03:20;;;;;;;10.68;9.30;;;3.80;99.90;;;;;;4955242;29;20205;-68
2020/12/31 09:05:57;;;;;;;9.05;6.80;;;3.80;99.90;;;;;;4954901;28;20626;-68
2020/12/31 09:08:24;;;;;;;11.82;10.15;;;3.80;99.90;;;;;;4955400;28;20945;-67
2020/12/31 09:11:00;;;;;;;8.80;7.50;;;3.90;99.90;;;;;;4955691;28;20221;-68
2020/12/31 09:13:26;;;;;;;14.60;9.68;;;3.90;99.90;;;;;;4955121;28;20256;-68
2020/12/31 09:16:07;;;;;;;10.27;8.30;;;3.90;99.90;;;;;;4955251;28;20205;-69
2020/12/31 09:18:33;;;;;;;9.95;8.57;;;3.90;99.90;;;;;;4954498;28;20527;-69
2020/12/31 09:21:00;;;;;;;7.38;6.63;;;3.90;99.90;;;;;;4954815;28;20233;-68
2020/12/31 09:23:26;;;;;;;6.80;6.10;;;3.90;99.90;;;;;;4955175;28;20217;-68
2020/12/31 09:25:53;;;;;;;7.25;6.03;;;3.90;99.90;;;;;;4954811;28;20570;-67
2020/12/31 09:28:19;;;;;;;7.35;6.13;;;3.90;99.90;;;;;;4954530;28;20224;-68
2020/12/31 09:30:46;;;;;;;6.47;5.85;;;4.00;99.90;;;;;;4954896;28;20232;-68
2020/12/31 09:33:16;;;;;;;19.13;12.93;;;4.00;99.90;;;;;;4954538;28;20213;-67
2020/12/31 09:35:43;;;;;;;7.55;6.53;;;4.00;99.90;;;;;;4954773;28;20531;-68
2020/12/31 09:38:10;;;;;;;8.60;7.20;;;4.00;99.90;;;;;;4955060;29;20613;-67
2020/12/31 09:40:36;;;;;;;7.70;6.63;;;4.00;99.90;;;;;;4955021;28;20545;-67
2020/12/31 09:43:03;;;;;;;7.35;6.68;;;4.10;99.90;;;;;;4954063;28;20201;-69
2020/12/31 09:45:29;;;;;;;8.38;6.78;;;4.10;99.90;;;;;;4954474;28;20201;-69
2020/12/31 09:47:56;;;;;;;8.05;7.25;;;4.10;99.90;;;;;;4953577;29;20235;-69
2020/12/31 09:50:22;;;;;;;8.75;7.72;;;4.10;99.90;;;;;;4954531;28;20208;-68
2020/12/31 09:52:48;;;;;;;10.35;9.30;;;4.10;99.90;;;;;;4954468;28;20198;-68
2020/12/31 09:55:15;;;;;;;7.07;5.93;;;4.20;99.90;;;;;;4954634;28;20224;-68
2020/12/31 09:57:41;;;;;;;8.45;7.63;;;4.20;99.90;;;;;;4954129;28;20209;-68
2020/12/31 10:00:08;;;;;;;9.02;8.00;;;4.20;99.90;;;;;;4954511;28;20580;-68
2020/12/31 10:02:34;;;;;;;8.18;7.03;;;4.30;99.90;;;;;;4953609;28;20294;-68
2020/12/31 10:05:00;;;;;;;8.73;7.82;;;4.30;99.90;;;;;;4954053;28;20278;-68
2020/12/31 10:07:27;;;;;;;7.00;6.30;;;4.30;99.90;;;;;;4954612;29;20272;-68
2020/12/31 10:09:53;;;;;;;10.65;6.15;;;4.30;99.90;;;;;;4954232;28;20218;-67
2020/12/31 10:12:20;;;;;;;7.90;7.15;;;4.30;99.90;;;;;;4954213;28;20236;-67
2020/12/31 10:14:47;;;;;;;8.25;6.60;;;4.30;99.90;;;;;;4954938;28;20205;-69
2020/12/31 10:17:13;;;;;;;8.60;6.57;;;4.30;99.90;;;;;;4954261;29;20215;-69
2020/12/31 10:19:39;;;;;;;6.88;6.18;;;4.30;99.90;;;;;;4953701;28;20241;-69
2020/12/31 10:22:05;;;;;;;7.43;6.72;;;4.30;99.90;;;;;;4954129;28;20233;-69
2020/12/31 10:24:32;;;;;;;7.90;6.07;;;4.40;99.90;;;;;;4955172;28;20201;-69
2020/12/31 10:26:58;;;;;;;7.30;6.38;;;4.40;99.90;;;;;;4957287;28;20225;-69
2020/12/31 10:29:25;;;;;;;7.25;5.97;;;4.40;99.90;;;;;;4959023;28;20205;-69
2020/12/31 10:31:52;;;;;;;13.82;11.45;;;4.50;99.90;;;;;;4954970;28;20236;-70
2020/12/31 10:34:18;;;;;;;9.20;7.68;;;4.50;99.90;;;;;;4952787;28;20264;-69
2020/12/31 10:36:50;;;;;;;12.30;9.55;;;4.50;99.90;;;;;;4954916;28;20209;-69
2020/12/31 10:39:16;;;;;;;8.68;7.68;;;4.50;99.90;;;;;;4961568;28;20677;-69
2020/12/31 10:41:43;;;;;;;9.07;8.00;;;4.60;99.90;;;;;;4964431;28;20241;-69
2020/12/31 10:44:09;;;;;;;6.60;6.00;;;4.60;99.90;;;;;;4956137;28;20698;-69
2020/12/31 10:46:36;;;;;;;8.30;7.47;;;4.60;99.90;;;;;;4955659;29;20287;-68
2020/12/31 10:49:02;;;;;;;11.70;7.95;;;4.70;99.90;;;;;;4953980;28;20237;-68
2020/12/31 10:51:29;;;;;;;8.75;7.60;;;4.70;99.90;;;;;;4953874;28;20232;-69
2020/12/31 10:53:55;;;;;;;9.75;8.75;;;4.80;99.90;;;;;;4953870;28;20197;-68
2020/12/31 10:56:21;;;;;;;8.32;7.10;;;4.80;99.90;;;;;;4953580;29;20225;-68
2020/12/31 10:58:47;;;;;;;7.93;7.05;;;4.80;99.90;;;;;;4953701;29;20272;-68
2020/12/31 11:01:14;;;;;;;10.07;9.05;;;4.80;99.90;;;;;;4953633;28;20784;-68
2020/12/31 11:03:43;;;;;;;7.90;6.45;;;4.80;99.90;;;;;;4953519;28;20316;-69
2020/12/31 11:06:10;;;;;;;6.70;6.15;;;4.80;99.90;;;;;;4953881;29;20205;-70
2020/12/31 11:08:36;;;;;;;8.48;7.13;;;4.80;99.90;;;;;;4953380;28;20244;-69
2020/12/31 11:11:02;;;;;;;8.52;7.05;;;4.80;99.90;;;;;;4953104;28;20232;-70
2020/12/31 11:13:28;;;;;;;7.53;6.90;;;4.80;99.90;;;;;;4952973;28;20217;-70
2020/12/31 11:15:54;;;;;;;6.97;6.28;;;4.80;99.90;;;;;;4953645;28;20220;-69
2020/12/31 11:18:20;;;;;;;7.20;6.45;;;4.80;99.90;;;;;;4957042;28;20213;-70
2020/12/31 11:20:52;;;;;;;7.53;6.63;;;4.90;99.90;;;;;;4957432;28;20568;-70
2020/12/31 11:23:18;;;;;;;6.13;5.63;;;4.90;99.90;;;;;;4956149;28;20205;-70
2020/12/31 11:25:44;;;;;;;6.53;5.88;;;4.90;99.90;;;;;;4957209;28;20209;-68
2020/12/31 11:28:10;;;;;;;7.07;6.43;;;4.90;99.90;;;;;;4956511;28;20619;-69
2020/12/31 11:30:36;;;;;;;7.25;6.30;;;4.90;99.90;;;;;;4957480;28;20702;-69
2020/12/31 11:33:02;;;;;;;6.57;5.97;;;4.90;99.90;;;;;;4955756;28;20213;-69
2020/12/31 11:35:28;;;;;;;7.10;6.40;;;4.90;99.90;;;;;;4955241;28;20206;-69
2020/12/31 11:37:57;;;;;;;8.00;7.25;;;4.90;99.90;;;;;;4956462;29;20205;-69
2020/12/31 11:40:23;;;;;;;5.50;5.00;;;4.90;99.90;;;;;;4952762;28;20229;-69
2020/12/31 11:42:49;;;;;;;6.75;6.05;;;4.90;99.90;;;;;;4956251;28;20567;-68
2020/12/31 11:45:15;;;;;;;7.07;6.30;;;5.00;99.90;;;;;;4957214;28;20209;-68
2020/12/31 11:47:42;;;;;;;7.45;6.85;;;5.00;99.90;;;;;;4956617;28;20213;-68
2020/12/31 11:50:08;;;;;;;6.72;6.05;;;5.00;99.90;;;;;;4957176;28;20201;-68
2020/12/31 11:52:35;;;;;;;6.70;6.10;;;5.00;99.90;;;;;;4956589;28;20670;-68
2020/12/31 11:55:02;;;;;;;8.00;7.22;;;4.90;99.90;;;;;;4956366;28;20213;-69
2020/12/31 11:57:28;;;;;;;7.80;7.00;;;4.90;99.90;;;;;;4956571;28;20662;-69
2020/12/31 11:59:54;;;;;;;10.48;8.02;;;4.90;99.90;;;;;;4956936;29;20236;-69
2020/12/31 12:02:20;;;;;;;14.90;10.65;;;4.90;99.90;;;;;;4956530;28;20260;-69
2020/12/31 12:04:46;;;;;;;17.67;12.10;;;4.90;99.90;;;;;;4956528;28;20220;-68
2020/12/31 12:07:12;;;;;;;28.70;18.30;;;4.80;99.90;;;;;;4956300;28;20228;-68
2020/12/31 12:09:38;;;;;;;25.05;14.13;;;4.80;99.90;;;;;;4956028;28;20213;-68
2020/12/31 12:12:07;;;;;;;29.02;17.30;;;4.80;99.90;;;;;;4956211;28;20304;-69
2020/12/31 12:14:34;;;;;;;15.15;10.90;;;4.80;99.90;;;;;;4956752;28;20209;-68
2020/12/31 12:17:01;;;;;;;12.27;9.50;;;4.80;99.90;;;;;;4956116;28;20201;-69
2020/12/31 12:19:27;;;;;;;12.57;9.50;;;4.80;99.90;;;;;;4955935;28;20223;-69
2020/12/31 12:21:57;;;;;;;11.65;10.30;;;4.80;99.90;;;;;;4956217;28;20603;-68
2020/12/31 12:24:24;;;;;;;16.95;13.10;;;4.70;99.90;;;;;;4956932;28;20285;-68
2020/12/31 12:26:50;;;;;;;13.15;10.82;;;4.70;99.90;;;;;;4957095;29;20206;-69
2020/12/31 12:29:17;;;;;;;16.27;11.25;;;4.70;99.90;;;;;;4955450;28;20303;-68
2020/12/31 12:31:43;;;;;;;13.27;10.40;;;4.70;99.90;;;;;;4956423;28;20229;-69
2020/12/31 12:34:09;;;;;;;10.98;9.85;;;4.70;99.90;;;;;;4955723;28;20208;-68
2020/12/31 12:36:35;;;;;;;12.35;9.90;;;4.70;99.90;;;;;;4955621;28;20301;-69
2020/12/31 12:39:03;;;;;;;12.45;8.73;;;4.70;99.90;;;;;;4956021;28;20213;-69
2020/12/31 12:41:29;;;;;;;12.50;9.85;;;4.70;99.90;;;;;;4954599;28;20252;-69
2020/12/31 12:43:55;;;;;;;13.85;9.85;;;4.70;99.90;;;;;;4955577;28;20209;-67
2020/12/31 12:46:22;;;;;;;11.52;9.60;;;4.70;99.90;;;;;;4955549;28;20210;-68
2020/12/31 12:48:48;;;;;;;8.63;7.80;;;4.70;99.90;;;;;;4955788;28;20217;-67
2020/12/31 12:51:15;;;;;;;8.93;8.00;;;4.70;99.90;;;;;;4956364;28;20232;-68
2020/12/31 12:53:41;;;;;;;11.32;8.15;;;4.60;99.90;;;;;;4955888;28;20618;-69
2020/12/31 12:56:11;;;;;;;10.30;8.65;;;4.60;99.90;;;;;;4955724;28;20213;-69
2020/12/31 12:58:37;;;;;;;14.68;11.63;;;4.60;99.90;;;;;;4955757;28;20216;-69
2020/12/31 13:01:03;;;;;;;23.20;16.05;;;4.70;99.90;;;;;;4955605;28;20261;-69
2020/12/31 13:03:30;;;;;;;22.67;15.80;;;4.70;99.90;;;;;;4954968;28;20538;-68
2020/12/31 13:05:56;;;;;;;30.50;19.15;;;4.70;99.90;;;;;;4955611;28;20280;-68
2020/12/31 13:08:24;;;;;;;19.13;13.30;;;4.70;99.90;;;;;;4955717;28;20225;-68
2020/12/31 13:10:51;;;;;;;74.55;31.10;;;4.60;99.90;;;;;;4955622;28;20239;-69
2020/12/31 13:13:17;;;;;;;29.05;19.95;;;4.60;99.90;;;;;;4954604;28;20256;-68
2020/12/31 13:15:43;;;;;;;43.90;24.92;;;4.60;99.90;;;;;;4955715;28;20217;-69
2020/12/31 13:18:10;;;;;;;23.75;16.95;;;4.60;99.90;;;;;;4954945;28;20616;-69
2020/12/31 13:20:39;;;;;;;39.40;23.35;;;4.50;99.90;;;;;;4955506;28;20237;-68
2020/12/31 13:23:05;;;;;;;13.90;10.85;;;4.60;99.90;;;;;;4954938;28;20213;-69
2020/12/31 13:25:31;;;;;;;26.20;14.95;;;4.60;99.90;;;;;;4955735;28;20205;-69
2020/12/31 13:27:57;;;;;;;29.58;16.67;;;4.50;99.90;;;;;;4955043;29;20213;-69
2020/12/31 13:30:24;;;;;;;27.05;16.30;;;4.50;99.90;;;;;;4955396;28;20232;-68
2020/12/31 13:32:50;;;;;;;21.05;14.88;;;4.50;99.90;;;;;;4955034;28;20217;-68
2020/12/31 13:35:16;;;;;;;33.17;18.33;;;4.40;99.90;;;;;;4955240;28;20279;-67
2020/12/31 13:37:43;;;;;;;32.53;20.52;;;4.50;99.90;;;;;;4954464;28;20198;-67
2020/12/31 13:40:10;;;;;;;34.25;17.13;;;4.40;99.90;;;;;;4955422;28;20221;-68
2020/12/31 13:42:36;;;;;;;32.80;19.45;;;4.40;99.90;;;;;;4954313;28;20213;-68
2020/12/31 13:45:04;;;;;;;22.92;16.13;;;4.40;99.90;;;;;;4954948;28;20205;-68
2020/12/31 13:47:30;;;;;;;27.30;17.48;;;4.40;99.90;;;;;;4954614;28;20670;-67
2020/12/31 13:49:56;;;;;;;16.85;12.10;;;4.30;99.90;;;;;;4955091;28;20205;-68
2020/12/31 13:52:23;;;;;;;27.20;15.57;;;4.40;99.90;;;;;;4954668;28;20291;-68
2020/12/31 13:54:50;;;;;;;24.70;16.27;;;4.30;99.90;;;;;;4954686;28;20661;-68
2020/12/31 13:57:16;;;;;;;25.38;14.88;;;4.30;99.90;;;;;;4956193;28;20209;-67
2020/12/31 13:59:43;;;;;;;32.22;17.45;;;4.30;99.90;;;;;;4955129;28;20213;-68
2020/12/31 14:02:10;;;;;;;16.58;13.20;;;4.30;99.90;;;;;;4943724;28;20324;-69
2020/12/31 14:04:36;;;;;;;23.52;17.23;;;4.30;99.90;;;;;;4954192;28;20209;-68
2020/12/31 14:07:05;;;;;;;23.33;16.75;;;4.30;99.90;;;;;;4953218;29;20198;-68
2020/12/31 14:09:31;;;;;;;17.23;12.45;;;4.30;99.90;;;;;;4953185;28;20292;-67
2020/12/31 14:11:58;;;;;;;31.30;20.20;;;4.30;99.90;;;;;;4953406;28;20366;-67
2020/12/31 14:14:24;;;;;;;21.20;12.98;;;4.30;99.90;;;;;;4954398;28;20208;-67
2020/12/31 14:16:53;;;;;;;15.82;11.07;;;4.20;99.90;;;;;;4954890;28;20261;-67
2020/12/31 14:19:19;;;;;;;22.58;14.15;;;4.20;99.90;;;;;;4954467;28;20213;-67
2020/12/31 14:21:45;;;;;;;26.15;16.65;;;4.20;99.90;;;;;;4954231;28;20233;-67
2020/12/31 14:24:11;;;;;;;15.38;10.50;;;4.20;99.90;;;;;;4950634;28;20206;-67
2020/12/31 14:26:37;;;;;;;12.02;9.57;;;4.20;99.90;;;;;;4952341;29;20292;-67
2020/12/31 14:29:04;;;;;;;12.32;9.52;;;4.20;99.90;;;;;;4954450;28;20228;-66
2020/12/31 14:31:34;;;;;;;13.93;10.05;;;4.20;99.90;;;;;;4954432;28;20229;-67
2020/12/31 14:34:00;;;;;;;10.23;8.57;;;4.10;99.90;;;;;;4953460;28;20210;-67
2020/12/31 14:36:27;;;;;;;12.63;9.40;;;4.20;99.90;;;;;;4954743;28;20276;-67
2020/12/31 14:38:53;;;;;;;12.98;10.07;;;4.20;99.90;;;;;;4954166;28;20214;-67
2020/12/31 14:41:19;;;;;;;10.65;9.55;;;4.20;99.90;;;;;;4955897;28;20240;-67
2020/12/31 14:43:46;;;;;;;13.27;11.02;;;4.20;99.90;;;;;;4953522;28;20209;-67
2020/12/31 14:46:13;;;;;;;14.52;11.40;;;4.20;99.90;;;;;;4954229;28;20201;-67
2020/12/31 14:48:39;;;;;;;16.80;11.13;;;4.20;99.90;;;;;;4953030;28;20689;-68
2020/12/31 14:51:05;;;;;;;12.77;9.70;;;4.20;99.90;;;;;;4953084;28;20304;-68
2020/12/31 14:53:32;;;;;;;11.30;9.30;;;4.10;99.90;;;;;;4953387;28;20308;-67
2020/12/31 14:55:58;;;;;;;12.05;9.80;;;4.10;99.90;;;;;;4954030;28;20208;-67
2020/12/31 14:58:24;;;;;;;11.65;9.95;;;4.10;99.90;;;;;;4953339;28;20722;-67
2020/12/31 15:00:50;;;;;;;14.30;10.60;;;4.10;99.90;;;;;;4952664;28;20276;-67
2020/12/31 15:03:17;;;;;;;14.25;10.85;;;4.00;99.90;;;;;;4952211;28;20205;-67
2020/12/31 15:05:45;;;;;;;14.23;11.18;;;4.10;99.90;;;;;;4953613;28;20209;-67
2020/12/31 15:08:11;;;;;;;11.73;10.43;;;4.10;99.90;;;;;;4952365;28;20213;-67
2020/12/31 15:10:37;;;;;;;17.27;12.93;;;4.10;99.90;;;;;;4953423;28;20300;-68
2020/12/31 15:13:04;;;;;;;31.33;20.98;;;4.10;99.90;;;;;;4951237;28;20213;-68
2020/12/31 15:15:30;;;;;;;61.45;34.72;;;4.10;99.90;;;;;;4953851;29;20213;-69
2020/12/31 15:17:56;;;;;;;26.77;18.42;;;4.10;99.90;;;;;;4952428;28;20213;-67
2020/12/31 15:20:23;;;;;;;63.00;30.90;;;4.10;99.90;;;;;;4953680;28;20768;-67
2020/12/31 15:22:49;;;;;;;57.35;30.63;;;4.10;99.90;;;;;;4952653;28;20217;-66
2020/12/31 15:25:15;;;;;;;194.02;89.40;;;4.00;99.90;;;;;;4953074;28;20217;-68
2020/12/31 15:27:42;;;;;;;63.13;33.70;;;4.10;99.90;;;;;;4953329;28;20289;-68
2020/12/31 15:30:08;;;;;;;25.05;14.18;;;4.10;99.90;;;;;;4952529;28;20201;-68
2020/12/31 15:32:35;;;;;;;26.33;16.92;;;4.10;99.90;;;;;;4952093;28;20693;-68
2020/12/31 15:35:01;;;;;;;21.73;15.23;;;4.10;99.90;;;;;;4952815;28;20216;-68
2020/12/31 15:37:28;;;;;;;23.52;16.25;;;4.00;99.90;;;;;;4953050;28;20209;-68
2020/12/31 15:39:54;;;;;;;23.02;14.68;;;4.10;99.90;;;;;;4952942;28;20284;-68
2020/12/31 15:42:20;;;;;;;26.48;18.10;;;4.00;99.90;;;;;;4952437;28;20221;-68
2020/12/31 15:44:46;;;;;;;26.67;18.15;;;4.10;99.90;;;;;;4955007;29;20220;-69
2020/12/31 15:47:12;;;;;;;31.75;20.50;;;4.10;99.90;;;;;;4953943;28;20225;-69
2020/12/31 15:49:38;;;;;;;35.97;20.95;;;4.00;99.90;;;;;;4953028;28;20206;-69
2020/12/31 15:52:07;;;;;;;21.75;14.70;;;4.10;99.90;;;;;;4952534;28;20236;-69
2020/12/31 15:54:34;;;;;;;24.13;17.90;;;4.10;99.90;;;;;;4952788;28;20232;-69
2020/12/31 15:57:00;;;;;;;22.08;15.90;;;4.10;99.90;;;;;;4952773;28;20205;-69
2020/12/31 15:59:26;;;;;;;21.13;12.93;;;4.10;99.90;;;;;;4953169;28;20677;-68
2020/12/31 16:01:52;;;;;;;24.70;17.33;;;4.00;99.90;;;;;;4951865;28;20233;-68
2020/12/31 16:04:18;;;;;;;22.95;15.18;;;4.10;99.90;;;;;;4954466;28;20229;-68
2020/12/31 16:06:50;;;;;;;19.67;15.15;;;4.10;99.90;;;;;;4956720;28;20216;-69
2020/12/31 16:09:16;;;;;;;12.95;11.60;;;4.00;99.90;;;;;;4943662;29;20231;-68
2020/12/31 16:11:43;;;;;;;24.10;15.15;;;4.10;99.90;;;;;;4955532;28;20221;-69
2020/12/31 16:14:09;;;;;;;23.88;18.30;;;4.00;99.90;;;;;;4956150;29;20201;-69
2020/12/31 16:16:35;;;;;;;31.48;18.95;;;4.00;99.90;;;;;;4957454;28;20236;-68
2020/12/31 16:19:01;;;;;;;29.20;18.83;;;4.00;99.90;;;;;;4953785;28;20204;-69
2020/12/31 16:21:28;;;;;;;19.88;15.23;;;4.10;99.90;;;;;;4953268;29;20284;-69
2020/12/31 16:23:54;;;;;;;21.92;19.17;;;4.10;99.90;;;;;;4969648;28;20661;-67
2020/12/31 16:26:20;;;;;;;14.80;12.13;;;4.00;99.90;;;;;;4955730;28;20245;-68
2020/12/31 16:28:47;;;;;;;16.00;12.23;;;4.10;99.90;;;;;;4956167;28;20213;-67
2020/12/31 16:31:21;;;;;;;14.65;12.18;;;4.10;99.90;;;;;;4955092;28;20225;-67
2020/12/31 16:33:47;;;;;;;16.25;12.98;;;4.10;99.90;;;;;;4955171;28;20217;-69
2020/12/31 16:36:13;;;;;;;19.05;15.48;;;4.10;99.90;;;;;;4955275;28;20205;-70
2020/12/31 16:38:39;;;;;;;25.70;19.23;;;4.00;99.90;;;;;;4956089;28;20221;-69
2020/12/31 16:41:05;;;;;;;23.50;16.80;;;4.10;99.90;;;;;;4954430;28;20232;-70
2020/12/31 16:43:32;;;;;;;19.65;14.70;;;4.00;99.90;;;;;;4955192;28;20525;-70
2020/12/31 16:45:59;;;;;;;18.45;15.43;;;4.00;99.90;;;;;;4955025;28;20700;-70
2020/12/31 16:48:25;;;;;;;15.70;13.70;;;4.00;99.90;;;;;;4956008;28;20574;-69
2020/12/31 16:50:51;;;;;;;17.88;14.60;;;4.10;99.90;;;;;;4955568;28;20217;-70
2020/12/31 16:53:17;;;;;;;13.98;12.10;;;4.10;99.90;;;;;;4955286;28;20201;-70
2020/12/31 16:55:43;;;;;;;20.00;13.55;;;4.10;99.90;;;;;;4954919;28;20213;-69
2020/12/31 16:58:10;;;;;;;18.17;14.63;;;4.10;99.90;;;;;;4955697;28;20237;-69
2020/12/31 17:00:36;;;;;;;20.15;16.20;;;4.10;99.90;;;;;;4954916;28;20926;-68
2020/12/31 17:03:03;;;;;;;18.40;14.88;;;4.10;99.90;;;;;;4955403;29;20233;-70
2020/12/31 17:05:29;;;;;;;23.10;17.48;;;4.00;99.90;;;;;;4955619;29;20205;-69
2020/12/31 17:07:55;;;;;;;23.30;17.63;;;4.00;99.90;;;;;;4955078;28;20703;-69
2020/12/31 17:10:22;;;;;;;38.28;26.83;;;4.00;99.90;;;;;;4955795;28;20213;-67
2020/12/31 17:12:48;;;;;;;22.77;18.98;;;4.00;99.90;;;;;;4954745;28;20547;-68
2020/12/31 17:15:14;;;;;;;42.50;30.90;;;4.00;99.90;;;;;;4954847;28;20536;-67
2020/12/31 17:17:40;;;;;;;30.95;21.65;;;4.00;99.90;;;;;;4955096;28;20209;-68
2020/12/31 17:20:09;;;;;;;16.88;14.32;;;4.00;99.90;;;;;;4955303;28;20209;-68
2020/12/31 17:22:35;;;;;;;21.42;13.63;;;4.00;99.90;;;;;;4953137;29;20401;-67
2020/12/31 17:25:01;;;;;;;17.77;14.52;;;4.00;99.90;;;;;;4955907;28;20235;-67
2020/12/31 17:27:28;;;;;;;18.77;14.15;;;3.90;99.90;;;;;;4955387;28;20276;-67
2020/12/31 17:29:55;;;;;;;56.33;32.95;;;4.00;99.90;;;;;;4955527;28;20210;-67
2020/12/31 17:32:21;;;;;;;34.85;23.73;;;3.90;99.90;;;;;;4954076;28;20728;-67
2020/12/31 17:34:47;;;;;;;23.33;16.17;;;3.90;99.90;;;;;;4954722;28;20527;-68
2020/12/31 17:37:14;;;;;;;27.30;19.67;;;4.00;99.90;;;;;;4954860;28;20680;-69
2020/12/31 17:39:40;;;;;;;26.48;18.45;;;4.00;99.90;;;;;;4954627;28;20317;-70
2020/12/31 17:42:06;;;;;;;31.48;20.40;;;3.90;99.90;;;;;;4955339;28;20736;-70
2020/12/31 17:44:33;;;;;;;23.98;16.65;;;3.90;99.90;;;;;;4954317;29;20253;-70
2020/12/31 17:46:59;;;;;;;30.00;20.13;;;4.00;99.90;;;;;;4954582;28;20197;-70